Time;durP1;ratioP1;P1;durP2;ratioP2;P2;SDS_P1;SDS_P2;PMS_P1;PMS_P2;Temp;Humidity;BMP_temperature;BMP_pressure;BME280_temperature;BME280_humidity;BME280_pressure;Samples;Min_cycle;Max_cycle;Signal;HPM_P1;HPM_P2
2021/09/28 00:01:34;;;;;;;15.15;1.90;;;;;;;8.04;95.10;99479.41;4994185;28;20129;-65
2021/09/28 00:04:00;;;;;;;11.38;2.05;;;;;;;7.98;94.98;99483.03;4980680;28;20041;-66
2021/09/28 00:06:26;;;;;;;14.45;1.80;;;;;;;7.95;95.17;99480.81;4989532;28;20450;-65
2021/09/28 00:08:52;;;;;;;15.93;2.03;;;;;;;7.96;95.56;99481.66;4980931;28;20689;-66
2021/09/28 00:11:18;;;;;;;17.70;1.98;;;;;;;8.00;95.67;99478.25;4982346;28;20039;-66
2021/09/28 00:13:43;;;;;;;19.60;2.42;;;;;;;7.96;95.46;99485.13;4974290;28;20030;-66
2021/09/28 00:16:09;;;;;;;13.00;2.30;;;;;;;7.92;95.55;99483.97;4985321;28;21273;-66
2021/09/28 00:18:34;;;;;;;20.33;2.35;;;;;;;7.84;95.97;99492.34;4981271;28;20072;-65
2021/09/28 00:21:00;;;;;;;13.18;2.08;;;;;;;7.80;96.46;99488.50;4971481;28;20030;-66
2021/09/28 00:23:26;;;;;;;15.52;2.45;;;;;;;7.82;96.48;99489.06;4994222;28;20038;-66
2021/09/28 00:25:51;;;;;;;16.02;2.58;;;;;;;7.77;96.80;99489.75;5000080;28;20038;-66
2021/09/28 00:28:17;;;;;;;10.55;2.35;;;;;;;7.80;96.45;99488.50;4987011;28;20076;-66
2021/09/28 00:30:44;;;;;;;14.38;2.22;;;;;;;7.70;96.21;99495.22;4991758;28;20156;-65
2021/09/28 00:33:11;;;;;;;13.40;2.45;;;;;;;7.69;97.04;99504.31;4985259;28;20049;-66
2021/09/28 00:35:37;;;;;;;15.05;2.67;;;;;;;7.65;97.19;99500.47;4984125;28;20527;-66
2021/09/28 00:38:04;;;;;;;20.67;3.28;;;;;;;7.61;98.01;99496.59;4987265;28;20042;-66
2021/09/28 00:40:30;;;;;;;17.55;2.83;;;;;;;7.63;97.53;99505.22;4987092;28;20034;-65
2021/09/28 00:42:57;;;;;;;12.93;2.70;;;;;;;7.71;97.50;99504.06;4990915;28;20126;-65
2021/09/28 00:45:23;;;;;;;16.27;2.85;;;;;;;7.62;97.46;99508.97;4977520;28;20373;-65
2021/09/28 00:47:49;;;;;;;14.85;2.20;;;;;;;7.60;97.91;99519.09;4976996;28;20039;-66
2021/09/28 00:50:14;;;;;;;16.02;2.38;;;;;;;7.59;98.34;99509.41;4982203;28;20137;-66
2021/09/28 00:52:40;;;;;;;15.32;2.35;;;;;;;7.51;98.39;99507.88;4966055;28;20475;-66
2021/09/28 00:55:06;;;;;;;11.25;2.47;;;;;;;7.52;98.62;99517.53;4983287;28;20552;-66
2021/09/28 00:57:32;;;;;;;12.38;2.47;;;;;;;7.49;98.71;99507.28;4982128;28;20084;-66
2021/09/28 00:59:59;;;;;;;20.75;2.85;;;;;;;7.52;98.97;99514.84;4979720;28;20061;-65
2021/09/28 01:02:24;;;;;;;19.77;2.40;;;;;;;7.53;98.84;99516.50;4986946;28;20034;-66
2021/09/28 01:04:50;;;;;;;20.10;3.28;;;;;;;7.51;98.49;99517.78;4992743;28;20038;-65
2021/09/28 01:07:15;;;;;;;15.95;3.13;;;;;;;7.52;98.67;99514.84;4979264;28;20502;-66
2021/09/28 01:09:41;;;;;;;14.63;2.83;;;;;;;7.50;98.87;99505.44;4984595;28;20439;-66
2021/09/28 01:12:09;;;;;;;21.17;2.90;;;;;;;7.47;98.83;99510.19;4989851;28;20065;-65
2021/09/28 01:14:36;;;;;;;25.95;2.72;;;;;;;7.41;99.10;99515.63;4975332;28;20504;-65
2021/09/28 01:17:08;;;;;;;15.88;3.05;;;;;;;7.43;99.12;99517.06;4972079;28;20051;-66
2021/09/28 01:19:34;;;;;;;19.30;3.13;;;;;;;7.37;99.26;99511.78;4969616;28;20501;-66
2021/09/28 01:22:00;;;;;;;15.10;2.35;;;;;;;7.32;99.95;99510.59;4980915;28;20034;-66
2021/09/28 01:24:26;;;;;;;16.85;2.80;;;;;;;7.26;100.00;99516.84;4963026;28;20089;-66
2021/09/28 01:26:52;;;;;;;15.60;2.42;;;;;;;7.16;99.81;99511.22;4980003;28;20036;-66
2021/09/28 01:29:18;;;;;;;10.57;2.58;;;;;;;7.09;100.00;99522.03;4984926;28;20038;-66
2021/09/28 01:31:46;;;;;;;13.85;3.58;;;;;;;7.11;100.00;99519.94;4980724;28;20504;-66
2021/09/28 01:34:12;;;;;;;22.13;4.43;;;;;;;7.10;100.00;99510.28;4990835;28;20045;-65
2021/09/28 01:36:37;;;;;;;24.52;4.80;;;;;;;7.11;100.00;99514.59;4976377;28;20042;-66
2021/09/28 01:39:04;;;;;;;26.33;4.53;;;;;;;7.13;100.00;99514.34;4980439;28;20038;-66
2021/09/28 01:41:30;;;;;;;25.05;3.92;;;;;;;7.08;100.00;99515.03;4989454;28;20026;-65
2021/09/28 01:44:13;;;;;;;14.27;2.88;;;;;;;7.03;100.00;99517.53;4969032;28;20085;-66
2021/09/28 01:46:41;;;;;;;14.05;2.70;;;;;;;6.91;100.00;99520.19;4972963;28;20314;-66
2021/09/28 01:49:08;;;;;;;17.80;3.42;;;;;;;6.95;100.00;99513.31;4989104;28;20057;-65
2021/09/28 01:51:34;;;;;;;18.83;4.28;;;;;;;6.98;100.00;99520.06;4979469;28;20085;-66
2021/09/28 01:54:00;;;;;;;17.38;3.53;;;;;;;6.99;100.00;99511.84;4974777;28;20399;-65
2021/09/28 01:56:27;;;;;;;15.00;3.08;;;;;;;7.01;100.00;99512.44;4987962;28;20038;-65
2021/09/28 01:58:54;;;;;;;21.20;4.18;;;;;;;6.97;100.00;99518.44;4968311;28;20186;-65
2021/09/28 02:01:21;;;;;;;17.00;3.95;;;;;;;6.94;100.00;99519.72;4989529;28;20034;-66
2021/09/28 02:03:46;;;;;;;22.48;3.72;;;;;;;6.92;100.00;99519.13;4979283;28;20096;-66
2021/09/28 02:06:22;;;;;;;16.48;3.28;;;;;;;6.82;100.00;99516.97;4983556;28;20442;-66
2021/09/28 02:08:48;;;;;;;17.98;2.65;;;;;;;6.89;100.00;99514.22;4981926;28;20041;-66
2021/09/28 02:11:14;;;;;;;22.65;2.92;;;;;;;6.87;100.00;99511.75;4989051;28;20054;-66
2021/09/28 02:13:40;;;;;;;23.30;3.17;;;;;;;6.92;100.00;99511.09;4984880;28;20038;-65
2021/09/28 02:16:07;;;;;;;15.75;2.70;;;;;;;6.88;100.00;99512.59;4983192;28;21137;-66
2021/09/28 02:18:33;;;;;;;17.52;3.70;;;;;;;6.89;100.00;99516.91;4988278;28;20066;-65
2021/09/28 02:20:59;;;;;;;15.27;3.17;;;;;;;6.87;100.00;99514.44;4981198;28;20039;-66
2021/09/28 02:23:25;;;;;;;24.20;3.42;;;;;;;6.85;100.00;99518.38;4986245;28;20447;-66
2021/09/28 02:25:51;;;;;;;17.38;3.75;;;;;;;6.82;100.00;99513.47;4990259;28;20081;-65
2021/09/28 02:28:16;;;;;;;28.00;5.65;;;;;;;6.84;100.00;99516.75;4978647;28;20461;-66
2021/09/28 02:30:42;;;;;;;22.95;5.25;;;;;;;6.79;100.00;99516.59;4978914;28;20355;-66
2021/09/28 02:33:07;;;;;;;23.13;5.20;;;;;;;6.73;100.00;99519.13;4982539;28;20035;-66
2021/09/28 02:35:33;;;;;;;32.90;4.80;;;;;;;6.63;100.00;99515.31;4981116;28;20034;-66
2021/09/28 02:37:59;;;;;;;21.92;5.80;;;;;;;6.57;100.00;99514.38;4961646;28;20507;-66
2021/09/28 02:40:26;;;;;;;17.23;4.40;;;;;;;6.61;100.00;99506.69;4988931;28;20039;-66
2021/09/28 02:42:52;;;;;;;27.58;4.90;;;;;;;6.57;100.00;99515.16;4989151;28;20081;-65
2021/09/28 02:45:18;;;;;;;31.35;5.32;;;;;;;6.51;100.00;99509.91;4985460;28;20480;-66
2021/09/28 02:47:43;;;;;;;28.70;7.00;;;;;;;6.48;100.00;99508.47;4982165;28;20061;-66
2021/09/28 02:50:09;;;;;;;24.60;6.47;;;;;;;6.56;100.00;99507.38;4981742;28;20825;-66
2021/09/28 02:52:35;;;;;;;21.98;5.00;;;;;;;6.47;100.00;99506.03;4987188;28;20042;-66
2021/09/28 02:55:00;;;;;;;16.35;4.45;;;;;;;6.38;100.00;99502.81;4973457;28;20041;-66
2021/09/28 02:57:26;;;;;;;23.70;4.93;;;;;;;6.46;100.00;99510.56;4981501;28;20404;-66
2021/09/28 02:59:51;;;;;;;19.15;5.35;;;;;;;6.41;100.00;99507.72;4990144;28;20042;-66
2021/09/28 03:02:16;;;;;;;18.23;4.00;;;;;;;6.45;100.00;99511.59;4979339;28;20034;-66
2021/09/28 03:04:42;;;;;;;19.33;2.90;;;;;;;6.57;100.00;99514.38;4981263;28;20121;-65
2021/09/28 03:07:07;;;;;;;18.77;3.83;;;;;;;6.65;100.00;99505.22;4985521;28;20182;-65
2021/09/28 03:09:33;;;;;;;24.67;3.15;;;;;;;6.67;100.00;99508.50;4987696;28;20030;-65
2021/09/28 03:11:58;;;;;;;20.98;3.45;;;;;;;6.79;100.00;99503.22;4979489;28;20049;-66
2021/09/28 03:14:24;;;;;;;24.50;4.18;;;;;;;6.87;100.00;99508.28;4984417;28;20049;-66
2021/09/28 03:16:51;;;;;;;29.50;3.63;;;;;;;6.83;100.00;99509.75;4981017;28;20042;-66
2021/09/28 03:19:17;;;;;;;22.02;3.80;;;;;;;6.83;100.00;99507.88;4983935;28;20074;-66
2021/09/28 03:21:43;;;;;;;27.30;4.78;;;;;;;6.85;100.00;99510.34;4985239;28;20029;-66
2021/09/28 03:24:34;;;;;;;15.85;3.15;;;;;;;6.83;100.00;99509.75;4980512;28;20170;-66
2021/09/28 03:26:59;;;;;;;24.45;3.83;;;;;;;6.84;100.00;99503.38;4963907;28;20054;-66
2021/09/28 03:29:25;;;;;;;22.02;3.83;;;;;;;6.85;100.00;99503.13;4634193;28;10000260;-66
2021/09/28 03:31:50;;;;;;;27.63;4.75;;;;;;;6.93;100.00;99507.38;4980609;28;20042;-66
2021/09/28 03:34:16;;;;;;;30.30;5.40;;;;;;;7.05;100.00;99506.63;4986379;28;20030;-65
2021/09/28 03:36:41;;;;;;;24.98;4.97;;;;;;;7.05;100.00;99506.63;4984907;28;20030;-66
2021/09/28 03:39:07;;;;;;;28.60;4.32;;;;;;;7.09;100.00;99503.28;4989136;28;20042;-66
2021/09/28 03:41:32;;;;;;;21.20;3.97;;;;;;;7.09;100.00;99500.59;4980051;28;20050;-66
2021/09/28 03:43:58;;;;;;;26.08;4.43;;;;;;;7.17;100.00;99499.47;4988028;28;20031;-66
2021/09/28 03:46:24;;;;;;;23.42;4.60;;;;;;;7.16;100.00;99495.97;4983387;28;20038;-66
2021/09/28 03:48:49;;;;;;;16.88;3.38;;;;;;;7.17;100.00;99502.13;4986861;28;20026;-66
2021/09/28 03:51:15;;;;;;;23.92;4.30;;;;;;;7.16;100.00;99504.03;4985346;28;20062;-66
2021/09/28 03:53:41;;;;;;;19.45;3.78;;;;;;;7.16;100.00;99503.19;4981883;28;20042;-66
2021/09/28 03:56:07;;;;;;;23.25;3.97;;;;;;;7.16;100.00;99506.69;4979648;28;20063;-66
2021/09/28 03:58:32;;;;;;;28.35;4.70;;;;;;;7.18;100.00;99507.28;4983408;28;20042;-66
2021/09/28 04:00:58;;;;;;;29.10;4.50;;;;;;;7.15;100.00;99497.03;4982060;28;20059;-66
2021/09/28 04:03:24;;;;;;;16.20;3.67;;;;;;;7.12;100.00;99508.19;4982916;28;20044;-66
2021/09/28 04:05:49;;;;;;;28.00;5.25;;;;;;;7.10;100.00;99498.72;4984499;28;20541;-66
2021/09/28 04:08:15;;;;;;;22.25;4.25;;;;;;;7.14;100.00;99500.75;4987601;28;20038;-66
2021/09/28 04:10:41;;;;;;;20.17;4.15;;;;;;;7.20;100.00;99503.56;4985980;28;20030;-66
2021/09/28 04:13:08;;;;;;;28.10;6.57;;;;;;;7.23;100.00;99503.91;4983903;28;20034;-66
2021/09/28 04:15:41;;;;;;;23.75;4.35;;;;;;;7.21;100.00;99505.19;4968266;28;20074;-66
2021/09/28 04:18:08;;;;;;;27.65;4.97;;;;;;;7.22;100.00;99504.16;4990587;28;20054;-66
2021/09/28 04:20:36;;;;;;;26.80;4.63;;;;;;;7.16;100.00;99505.88;4980326;28;20041;-66
2021/09/28 04:23:03;;;;;;;22.88;5.25;;;;;;;7.10;100.00;99498.72;4994950;28;20034;-66
2021/09/28 04:25:30;;;;;;;18.05;4.57;;;;;;;7.04;100.00;99495.09;4980858;28;20035;-65
2021/09/28 04:27:55;;;;;;;19.25;4.72;;;;;;;6.99;100.00;99498.44;4988278;28;20046;-66
2021/09/28 04:30:21;;;;;;;27.23;5.60;;;;;;;6.95;100.00;99507.97;4975254;28;20053;-66
2021/09/28 04:32:47;;;;;;;32.17;6.95;;;;;;;6.94;100.00;99509.00;4992814;28;20031;-66
2021/09/28 04:35:13;;;;;;;31.95;6.93;;;;;;;6.88;100.00;99501.88;4966273;28;20057;-66
2021/09/28 04:37:40;;;;;;;25.33;6.35;;;;;;;6.94;100.00;99513.53;4992671;28;20514;-66
2021/09/28 04:40:06;;;;;;;36.53;7.90;;;;;;;6.93;100.00;99515.41;4983254;28;20109;-66
2021/09/28 04:42:32;;;;;;;26.20;7.28;;;;;;;6.95;100.00;99513.31;4980119;28;20034;-66
2021/09/28 04:44:58;;;;;;;22.52;7.78;;;;;;;6.94;100.00;99508.19;4989172;28;20034;-66
2021/09/28 04:47:24;;;;;;;29.65;8.35;;;;;;;6.99;100.00;99509.16;4993681;28;20498;-66
2021/09/28 04:49:49;;;;;;;19.58;7.85;;;;;;;7.01;100.00;99504.41;4981180;28;20491;-66
2021/09/28 04:52:16;;;;;;;29.15;8.60;;;;;;;7.02;100.00;99508.72;4985529;28;20034;-66
2021/09/28 04:54:42;;;;;;;27.02;7.90;;;;;;;7.03;100.00;99517.53;4984841;28;20034;-66
2021/09/28 04:57:08;;;;;;;37.70;9.90;;;;;;;7.02;100.00;99514.06;4989638;28;20069;-66
2021/09/28 04:59:33;;;;;;;30.58;9.13;;;;;;;7.01;100.00;99515.09;4969732;28;20539;-66
2021/09/28 05:01:59;;;;;;;35.28;10.48;;;;;;;7.00;100.00;99507.28;4993533;28;20321;-66
2021/09/28 05:04:24;;;;;;;32.03;8.55;;;;;;;6.97;100.00;99510.41;4999156;28;20069;-66
2021/09/28 05:06:50;;;;;;;34.10;8.43;;;;;;;7.01;100.00;99514.28;4983740;28;20043;-66
2021/09/28 05:09:15;;;;;;;36.85;8.55;;;;;;;7.08;100.00;99515.03;4984995;28;20397;-66
2021/09/28 05:11:41;;;;;;;38.47;8.73;;;;;;;7.23;100.00;99508.47;4987016;28;20038;-66
2021/09/28 05:14:07;;;;;;;29.63;8.75;;;;;;;7.35;100.00;99513.88;4991567;28;20129;-66
2021/09/28 05:16:33;;;;;;;24.17;8.55;;;;;;;7.42;100.00;99514.59;4984200;28;20077;-67
2021/09/28 05:18:58;;;;;;;35.83;8.73;;;;;;;7.52;100.00;99506.81;4991822;28;20114;-66
2021/09/28 05:21:25;;;;;;;38.10;8.27;;;;;;;7.59;100.00;99507.53;4987273;28;20042;-65
2021/09/28 05:23:51;;;;;;;30.75;7.88;;;;;;;7.66;100.00;99509.31;4959069;28;20039;-65
2021/09/28 05:26:17;;;;;;;26.08;7.45;;;;;;;7.65;100.00;99505.81;4990646;28;20045;-65
2021/09/28 05:28:43;;;;;;;25.70;7.18;;;;;;;7.60;100.00;99513.72;4988430;28;20563;-66
2021/09/28 05:31:09;;;;;;;31.83;6.82;;;;;;;7.53;100.00;99511.13;4988735;28;20034;-66
2021/09/28 05:33:35;;;;;;;29.58;6.20;;;;;;;7.44;100.00;99507.97;4990621;28;20030;-66
2021/09/28 05:36:01;;;;;;;15.82;5.30;;;;;;;7.38;100.00;99508.06;4989089;28;20050;-66
2021/09/28 05:38:26;;;;;;;22.45;5.75;;;;;;;7.32;100.00;99513.28;4986773;28;20088;-66
2021/09/28 05:40:52;;;;;;;25.25;6.07;;;;;;;7.26;100.00;99500.78;4969504;28;20030;-67
2021/09/28 05:43:18;;;;;;;20.13;5.90;;;;;;;7.21;100.00;99508.69;4990945;28;20473;-66
2021/09/28 05:45:44;;;;;;;27.20;6.05;;;;;;;7.15;100.00;99513.09;4986679;28;20084;-67
2021/09/28 05:48:10;;;;;;;25.42;6.22;;;;;;;7.18;100.00;99518.00;4990359;28;20031;-66
2021/09/28 05:50:37;;;;;;;37.28;7.30;;;;;;;7.24;100.00;99513.59;4985749;28;20041;-65
2021/09/28 05:53:06;;;;;;;33.08;7.22;;;;;;;7.32;100.00;99517.81;4990202;28;20038;-68
2021/09/28 05:55:33;;;;;;;32.42;9.13;;;;;;;7.36;100.00;99518.19;4987060;28;20026;-67
2021/09/28 05:57:59;;;;;;;22.98;8.63;;;;;;;7.40;100.00;99517.50;4989013;28;20040;-66
2021/09/28 06:00:25;;;;;;;29.40;9.13;;;;;;;7.49;100.00;99517.19;4987746;28;20046;-67
2021/09/28 06:02:50;;;;;;;46.80;9.77;;;;;;;7.49;100.00;99515.31;4984834;28;20045;-66
2021/09/28 06:05:16;;;;;;;30.42;8.32;;;;;;;7.55;100.00;99513.59;4988753;28;20120;-67
2021/09/28 06:07:41;;;;;;;34.50;7.40;;;;;;;7.51;100.00;99509.75;4989030;28;20054;-66
2021/09/28 06:10:07;;;;;;;26.60;7.63;;;;;;;7.53;100.00;99513.81;4981270;28;20128;-66
2021/09/28 06:12:33;;;;;;;24.38;6.95;;;;;;;7.48;100.00;99508.31;4997243;28;20164;-66
2021/09/28 06:14:58;;;;;;;40.80;8.90;;;;;;;7.51;100.00;99507.06;4983723;28;20034;-67
2021/09/28 06:17:24;;;;;;;31.65;9.50;;;;;;;7.51;100.00;99509.75;4980957;28;20096;-67
2021/09/28 06:19:50;;;;;;;27.23;9.20;;;;;;;7.55;100.00;99500.19;4973779;28;20385;-67
2021/09/28 06:22:16;;;;;;;27.10;10.13;;;;;;;7.57;100.00;99501.59;4986889;28;20405;-66
2021/09/28 06:24:41;;;;;;;48.35;12.90;;;;;;;7.56;100.00;99499.97;4974513;28;20487;-68
2021/09/28 06:27:08;;;;;;;38.00;10.88;;;;;;;7.60;100.00;99494.97;4978115;28;20051;-69
2021/09/28 06:29:33;;;;;;;33.33;10.48;;;;;;;7.58;100.00;99495.19;4989156;28;20404;-66
2021/09/28 06:31:59;;;;;;;38.17;11.43;;;;;;;7.60;100.00;99503.00;4986265;28;20490;-67
2021/09/28 06:34:29;;;;;;;34.42;11.98;;;;;;;7.62;100.00;99508.97;4987743;28;20099;-67
2021/09/28 06:36:54;;;;;;;41.00;12.45;;;;;;;7.64;100.00;99496.16;4977513;28;20504;-67
2021/09/28 06:39:20;;;;;;;39.55;11.93;;;;;;;7.64;100.00;99498.00;4991829;28;20069;-67
2021/09/28 06:41:46;;;;;;;35.83;10.20;;;;;;;7.64;100.00;99488.09;4961083;28;20092;-68
2021/09/28 06:44:11;;;;;;;40.03;10.48;;;;;;;7.62;100.00;99484.84;4983885;28;20476;-68
2021/09/28 06:46:37;;;;;;;37.08;10.73;;;;;;;7.65;100.00;99481.69;4985777;28;20030;-67
2021/09/28 06:49:03;;;;;;;37.25;9.98;;;;;;;7.66;100.00;99475.28;4983018;28;20042;-65
2021/09/28 06:51:29;;;;;;;36.65;9.60;;;;;;;7.60;100.00;99470.84;4990064;28;20432;-69
2021/09/28 06:53:55;;;;;;;30.88;9.45;;;;;;;7.62;100.00;99474.13;4984516;28;20033;-68
2021/09/28 06:56:21;;;;;;;29.77;10.02;;;;;;;7.66;100.00;99477.13;4642289;28;10000222;-68
2021/09/28 06:58:47;;;;;;;46.53;10.27;;;;;;;7.74;100.00;99482.16;4985951;28;20393;-68
2021/09/28 07:01:13;;;;;;;30.23;9.23;;;;;;;7.81;100.00;99482.88;4988267;28;20049;-67
2021/09/28 07:03:39;;;;;;;41.38;8.95;;;;;;;7.89;100.00;99471.81;4988805;28;20480;-67
2021/09/28 07:06:04;;;;;;;37.22;8.63;;;;;;;7.91;100.00;99476.97;4988667;28;20089;-67
2021/09/28 07:08:30;;;;;;;33.72;7.25;;;;;;;8.00;100.00;99483.63;4989120;28;20026;-67
2021/09/28 07:10:56;;;;;;;41.15;8.43;;;;;;;8.05;100.00;99482.94;4979531;28;20573;-67
2021/09/28 07:13:22;;;;;;;31.90;6.45;;;;;;;8.12;100.00;99477.44;4991305;28;20070;-66
2021/09/28 07:15:47;;;;;;;31.45;7.25;;;;;;;8.19;100.00;99476.28;4977344;28;20054;-67
2021/09/28 07:18:12;;;;;;;33.63;5.93;;;;;;;8.20;100.00;99466.38;4986024;28;20117;-66
2021/09/28 07:20:39;;;;;;;29.17;5.75;;;;;;;8.23;100.00;99479.31;4982450;28;20038;-66
2021/09/28 07:23:05;;;;;;;26.67;5.07;;;;;;;8.28;100.00;99474.06;4977195;28;20035;-67
2021/09/28 07:25:31;;;;;;;22.77;4.40;;;;;;;8.33;100.00;99471.50;4988233;28;20038;-67
2021/09/28 07:28:00;;;;;;;27.00;4.10;;;;;;;8.35;100.00;99477.44;4986259;28;20039;-67
2021/09/28 07:30:30;;;;;;;20.13;3.85;;;;;;;8.40;100.00;99475.91;4979723;28;20492;-67
2021/09/28 07:32:57;;;;;;;23.13;3.58;;;;;;;8.52;100.00;99470.59;4969949;28;20030;-67
2021/09/28 07:35:22;;;;;;;37.17;4.65;;;;;;;8.62;100.00;99471.59;4988851;28;20176;-67
2021/09/28 07:37:48;;;;;;;30.98;4.53;;;;;;;8.67;100.00;99467.38;4989731;28;20034;-67
2021/09/28 07:40:16;;;;;;;26.20;4.10;;;;;;;8.75;100.00;99472.38;4976107;28;20038;-67
2021/09/28 07:42:43;;;;;;;26.52;3.70;;;;;;;8.82;100.00;99472.28;4979010;28;20066;-66
2021/09/28 07:45:10;;;;;;;32.25;4.15;;;;;;;8.99;100.00;99475.03;4987621;28;20039;-67
2021/09/28 07:47:35;;;;;;;28.38;4.65;;;;;;;9.07;100.00;99471.97;4987385;28;20044;-66
2021/09/28 07:50:01;;;;;;;28.65;4.43;;;;;;;9.13;100.00;99470.19;4979665;28;20030;-67
2021/09/28 07:52:27;;;;;;;27.67;3.45;;;;;;;9.26;100.00;99469.91;4979207;28;20037;-67
2021/09/28 07:54:52;;;;;;;24.92;3.17;;;;;;;9.35;100.00;99468.44;4992346;28;20480;-67
2021/09/28 07:57:18;;;;;;;24.52;3.65;;;;;;;9.47;99.08;99459.50;4992395;28;20038;-67
2021/09/28 07:59:43;;;;;;;27.45;3.72;;;;;;;9.54;99.17;99459.38;4990829;28;20038;-67
2021/09/28 08:02:10;;;;;;;20.58;3.40;;;;;;;9.73;98.11;99462.66;4974883;28;20078;-67
2021/09/28 08:04:37;;;;;;;31.83;4.38;;;;;;;9.98;97.37;99459.53;4993569;28;20449;-67
2021/09/28 08:07:07;;;;;;;23.42;3.28;;;;;;;10.29;96.14;99459.19;4983917;28;20038;-67
2021/09/28 08:09:34;;;;;;;18.83;3.53;;;;;;;10.58;96.18;99456.38;4966894;28;20392;-67
2021/09/28 08:12:00;;;;;;;18.30;2.95;;;;;;;10.74;93.46;99449.31;4967710;28;20042;-67
2021/09/28 08:14:26;;;;;;;25.92;3.40;;;;;;;10.90;93.46;99453.00;4990909;28;20038;-67
2021/09/28 08:16:51;;;;;;;21.20;3.38;;;;;;;10.89;92.45;99448.66;4990535;28;20113;-67
2021/09/28 08:19:17;;;;;;;25.40;3.95;;;;;;;11.00;91.93;99441.53;4991621;28;20664;-67
2021/09/28 08:21:43;;;;;;;24.92;3.45;;;;;;;11.06;91.83;99449.41;4953472;28;20137;-67
2021/09/28 08:24:09;;;;;;;29.38;3.45;;;;;;;11.16;91.28;99443.31;4990753;28;20037;-67
2021/09/28 08:29:11;;;;;;;17.40;3.03;;;;;;;11.37;90.08;99446.22;4991397;28;20502;-67
2021/09/28 08:31:47;;;;;;;22.42;3.25;;;;;;;11.27;90.12;99436.97;4966442;28;20488;-67
2021/09/28 08:34:14;;;;;;;19.42;3.10;;;;;;;11.26;90.91;99431.81;4982576;28;20130;-68
2021/09/28 08:36:40;;;;;;;26.77;3.88;;;;;;;11.33;90.52;99428.94;4988600;28;20069;-67
2021/09/28 08:39:11;;;;;;;22.63;3.15;;;;;;;11.39;90.63;99436.00;4983018;28;20046;-67
2021/09/28 08:41:38;;;;;;;24.73;3.92;;;;;;;11.56;89.99;99439.38;4969960;28;20058;-67
2021/09/28 08:44:04;;;;;;;21.77;3.35;;;;;;;11.88;89.06;99428.84;4987212;28;20056;-67
2021/09/28 08:46:29;;;;;;;20.05;3.55;;;;;;;11.97;87.02;99432.69;4992495;28;20639;-68
2021/09/28 08:48:55;;;;;;;18.67;2.88;;;;;;;12.04;86.49;99427.91;4986655;28;20133;-67
2021/09/28 08:51:21;;;;;;;20.90;2.70;;;;;;;12.25;86.33;99433.41;4971500;28;20042;-67
2021/09/28 08:53:49;;;;;;;17.92;3.28;;;;;;;12.18;86.38;99419.34;4989413;28;20038;-68
2021/09/28 08:56:14;;;;;;;20.02;2.90;;;;;;;12.34;84.88;99422.94;4989800;28;20053;-67
2021/09/28 08:58:56;;;;;;;15.02;3.17;;;;;;;12.32;85.28;99417.00;4990294;28;20053;-67
2021/09/28 09:01:22;;;;;;;23.17;2.90;;;;;;;12.44;84.56;99414.91;4985202;28;20498;-67
2021/09/28 09:03:48;;;;;;;18.45;2.88;;;;;;;12.40;84.27;99417.31;4989589;28;20030;-67
2021/09/28 09:06:14;;;;;;;16.63;2.88;;;;;;;12.28;84.32;99414.81;4989609;28;20057;-67
2021/09/28 09:08:40;;;;;;;20.80;3.28;;;;;;;12.26;84.57;99410.75;4990889;28;20026;-67
2021/09/28 09:11:07;;;;;;;19.45;3.17;;;;;;;12.47;84.10;99408.16;4989690;28;20030;-67
2021/09/28 09:13:33;;;;;;;19.80;3.15;;;;;;;12.57;84.33;99414.41;4990965;28;20130;-67
2021/09/28 09:15:59;;;;;;;21.92;2.42;;;;;;;12.63;83.23;99400.94;4989792;28;20042;-67
2021/09/28 09:18:25;;;;;;;14.10;2.83;;;;;;;12.61;83.33;99403.06;4990282;28;20085;-67
2021/09/28 09:20:51;;;;;;;20.58;3.00;;;;;;;12.61;82.88;99398.50;4991080;28;20534;-67
2021/09/28 09:23:32;;;;;;;22.80;2.85;;;;;;;12.52;83.16;99394.69;4989909;28;20034;-67
2021/09/28 09:26:17;;;;;;;15.52;2.97;;;;;;;12.41;83.96;99394.66;4974260;28;20161;-67
2021/09/28 09:28:49;;;;;;;15.50;2.40;;;;;;;12.44;84.09;99399.53;4989920;28;20057;-67
2021/09/28 09:31:35;;;;;;;17.05;2.40;;;;;;;12.59;83.27;99389.84;4990427;28;20026;-67
2021/09/28 09:34:14;;;;;;;21.40;2.90;;;;;;;12.64;82.95;99387.16;4973563;28;20128;-67
2021/09/28 09:36:40;;;;;;;16.90;2.38;;;;;;;12.64;83.61;99386.34;4958313;28;20038;-67
2021/09/28 09:39:09;;;;;;;21.08;2.72;;;;;;;12.62;83.57;99383.91;4990287;28;20113;-68
2021/09/28 09:41:39;;;;;;;13.50;2.25;;;;;;;12.71;83.26;99387.72;4990199;28;20068;-67
2021/09/28 09:44:13;;;;;;;23.27;2.97;;;;;;;12.91;82.73;99382.63;4971346;28;20450;-67
2021/09/28 09:46:48;;;;;;;17.65;2.55;;;;;;;13.15;81.57;99381.03;4990911;28;20485;-67
2021/09/28 09:49:20;;;;;;;;;;;;;;;13.16;80.15;99369.16;4992237;28;20041;-67
2021/09/28 09:51:48;;;;;;;17.23;2.25;;;;;;;13.10;80.21;99367.53;4989996;28;20000;-69
2021/09/28 09:54:15;;;;;;;16.27;2.63;;;;;;;13.15;80.53;99367.53;4991222;28;20034;-68
2021/09/28 09:56:41;;;;;;;14.07;3.00;;;;;;;13.35;79.07;99367.81;4987368;28;20049;-68
2021/09/28 09:59:07;;;;;;;16.75;3.15;;;;;;;13.31;78.44;99359.44;4986251;28;20026;-67
2021/09/28 10:01:35;;;;;;;14.90;2.20;;;;;;;13.18;80.20;99348.06;4992064;28;20117;-68
2021/09/28 10:04:13;;;;;;;26.40;3.17;;;;;;;13.12;78.78;99341.03;4983237;28;20027;-68
2021/09/28 10:06:40;;;;;;;13.73;2.47;;;;;;;13.20;79.29;99345.09;4991001;28;20171;-68
2021/09/28 10:09:34;;;;;;;20.52;2.60;;;;;;;13.13;79.31;99348.06;4982062;28;20354;-67
2021/09/28 10:12:05;;;;;;;19.23;2.65;;;;;;;13.12;78.74;99345.63;4987875;28;20108;-68
2021/09/28 10:14:35;;;;;;;15.48;2.78;;;;;;;13.09;78.75;99332.66;4987477;28;20084;-69
2021/09/28 10:17:28;;;;;;;18.77;2.83;;;;;;;13.20;78.11;99336.16;4987662;28;20495;-68
2021/09/28 10:20:03;;;;;;;14.05;2.00;;;;;;;13.40;77.24;99336.19;4972232;28;20543;-68
2021/09/28 10:22:52;;;;;;;11.85;2.17;;;;;;;13.46;77.37;99327.03;4990521;28;20508;-68
2021/09/28 10:27:55;;;;;;;18.55;2.40;;;;;;;13.97;76.43;99317.16;4987169;28;20042;-68
2021/09/28 10:30:33;;;;;;;14.35;2.13;;;;;;;14.09;75.44;99308.72;4983301;28;20039;-68
2021/09/28 10:33:21;;;;;;;15.80;2.00;;;;;;;14.27;74.91;99295.69;4985625;28;20057;-68
2021/09/28 10:35:57;;;;;;;11.52;1.70;;;;;;;14.67;73.28;99293.81;4986270;28;20034;-68
2021/09/28 10:38:48;;;;;;;14.13;2.20;;;;;;;15.02;72.15;99288.44;4989467;28;20504;-68
2021/09/28 10:41:35;;;;;;;9.57;1.88;;;;;;;14.96;71.08;99276.03;4981487;28;20420;-68
2021/09/28 10:44:25;;;;;;;18.77;2.30;;;;;;;15.28;70.33;99280.91;4985833;28;20081;-68
2021/09/28 10:46:52;;;;;;;13.55;2.25;;;;;;;15.12;70.50;99284.84;4966847;28;20037;-68
2021/09/28 10:49:28;;;;;;;11.23;2.08;;;;;;;14.88;70.04;99278.25;4984732;28;20052;-69
2021/09/28 10:52:21;;;;;;;12.45;2.30;;;;;;;14.72;71.32;99272.13;4986681;28;20557;-68
2021/09/28 10:55:06;;;;;;;12.10;2.75;;;;;;;14.79;71.32;99263.69;4988304;28;20060;-68
2021/09/28 11:00:40;;;;;;;10.90;2.28;;;;;;;15.26;69.76;99257.91;4987717;28;20050;-68
2021/09/28 11:03:11;;;;;;;17.83;2.38;;;;;;;15.22;68.95;99247.63;4988568;28;20061;-68
2021/09/28 11:05:39;;;;;;;14.23;2.50;;;;;;;15.41;68.99;99255.03;4985937;28;20032;-68
2021/09/28 11:08:10;;;;;;;11.10;1.90;;;;;;;15.43;68.63;99246.59;4988783;28;20406;-68
2021/09/28 11:10:37;;;;;;;9.25;2.13;;;;;;;15.60;68.65;99240.72;4982361;28;20032;-68
2021/09/28 11:13:10;;;;;;;9.75;2.17;;;;;;;15.52;69.01;99232.13;4976808;28;20050;-68
2021/09/28 11:15:36;;;;;;;12.98;2.00;;;;;;;15.45;68.30;99237.06;4970825;28;20129;-68
2021/09/28 11:18:09;;;;;;;12.55;2.13;;;;;;;15.38;69.13;99233.91;4983225;28;20137;-67
2021/09/28 11:20:35;;;;;;;10.20;1.85;;;;;;;15.36;69.06;99228.75;4984396;28;20507;-67
2021/09/28 11:23:05;;;;;;;10.38;2.10;;;;;;;15.34;69.45;99220.09;4978290;28;20066;-67
2021/09/28 11:25:35;;;;;;;14.13;2.53;;;;;;;15.06;71.34;99222.53;4962643;28;20606;-67
2021/09/28 11:28:05;;;;;;;10.18;2.15;;;;;;;14.77;72.19;99214.34;4989597;28;20046;-68
2021/09/28 11:30:35;;;;;;;20.55;2.70;;;;;;;14.75;73.63;99216.53;4983959;28;20079;-69
2021/09/28 11:33:04;;;;;;;20.13;2.78;;;;;;;14.66;72.42;99210.06;4974559;28;20026;-69
2021/09/28 11:35:30;;;;;;;15.73;2.00;;;;;;;14.76;72.75;99207.31;4960575;28;20049;-68
2021/09/28 11:37:59;;;;;;;13.00;2.20;;;;;;;14.88;73.27;99201.53;4979773;28;20451;-68